Portada
METAR-TAF:

METAR-TAF

Aeroports :

Yurimaguas, Perú

latitud: 05-54S, longitud: 076-05W, altitud: 179 m

Observació

L'informe es va fer fa 3 hores i 14 minuts, a les 20:00 UTC
Vent 4 kt del Nord/Nord-Est
Temperatura 30°C
Humitat 66%
Pressió 1006 hPa
Visibilitat 10 km o més
Núvols disperses a una alçada de 1500 ft
Cel ennuvolat a una alçada de 7000 ft

METAR: SPMS 012000Z 02004KT 9999 SCT015 BKN070 30/23 Q1006 RMK BIRD HAZARD RWY09/27 PP000

Hora: 18:14 (23:14 UTC)

Pronòstic

L'informe es va fer fa 6 hores i 14 minuts, a les 17:00 UTC
Pronòstic vàlid del 01 a les 18 UTC al 02 a les 18 UTC
Vent 4 kt del Nord
Visibilitat 10 km o més
Escasses núvols a una alçada de 1000 ft
Núvols disperses a una alçada de 7000 ft
Temporalment
l' 02 a les 11 UTC al 02 a les 15 UTC
Visibilitat: 7000 m
Cel ennuvolat a una alçada de 800 ft
Cel ennuvolat a una alçada de 8000 ft
plugim, pluja

TAF: SPMS 011700Z 0118/0218 01004KT 9999 FEW010 SCT070 TX32/0120Z TN23/0211Z TEMPO 0211/0215 7000 DZRA BKN008 BKN080

Observacions i pronòstics meteorològics de més de 4000 aeroports (METAR i TAF).

Les estacions disponibles són els punts grocs i vermells al mapa.

Posi el ratolí al punt desitjat per veure el nom de l'estació.

Feu clic per veure les observacions i els pronòstics meteorològics.

Per canviar el mapa: feu clic els botons verds amb una creu de color negre per apropar; al botó verd amb un guió per allunyar la imatge; o en les fletxes verdes per a mapes adjacents.


METAR-TAF: